Time;durP1;ratioP1;P1;durP2;ratioP2;P2;SDS_P1;SDS_P2;PMS_P1;PMS_P2;Temp;Humidity;BMP_temperature;BMP_pressure;BME280_temperature;BME280_humidity;BME280_pressure;Samples;Min_cycle;Max_cycle;Signal;HPM_P1;HPM_P2
2022/07/07 00:00:22;;;;;;;10.30;7.60;;;;;;;19.52;100.00;100127.14;1753643;81;21152;-62
2022/07/07 00:02:49;;;;;;;10.37;7.70;;;;;;;19.51;100.00;100123.41;1758781;81;21127;-58
2022/07/07 00:05:18;;;;;;;14.07;7.50;;;;;;;19.47;100.00;100123.62;1761505;80;21113;-55
2022/07/07 00:07:47;;;;;;;10.20;7.27;;;;;;;19.48;100.00;100125.23;1757852;80;21124;-55
2022/07/07 00:10:14;;;;;;;11.70;8.43;;;;;;;19.49;100.00;100119.70;1756451;80;21517;-63
2022/07/07 00:12:41;;;;;;;9.57;7.27;;;;;;;19.53;100.00;100117.36;1754421;80;21209;-56
2022/07/07 00:15:10;;;;;;;9.77;7.00;;;;;;;19.54;100.00;100122.92;1719259;82;21348;-56
2022/07/07 00:17:37;;;;;;;11.90;7.20;;;;;;;19.51;100.00;100122.91;1764543;80;20922;-56
2022/07/07 00:20:05;;;;;;;13.23;7.20;;;;;;;19.46;100.00;100120.18;1756156;80;21077;-65
2022/07/07 00:22:33;;;;;;;10.40;6.87;;;;;;;19.41;100.00;100118.80;1775666;80;21022;-56
2022/07/07 00:25:01;;;;;;;8.53;6.60;;;;;;;19.37;100.00;100117.69;1762131;80;20957;-56
2022/07/07 00:27:30;;;;;;;8.77;6.33;;;;;;;19.34;100.00;100120.30;1768505;80;20932;-55
2022/07/07 00:29:57;;;;;;;9.40;6.10;;;;;;;19.29;100.00;100110.98;1756287;80;20897;-57
2022/07/07 00:32:24;;;;;;;9.67;6.57;;;;;;;19.27;100.00;100115.70;1757430;80;21049;-56
2022/07/07 00:34:51;;;;;;;9.63;7.10;;;;;;;19.22;100.00;100110.88;1748650;80;21504;-56
2022/07/07 00:37:18;;;;;;;8.97;6.43;;;;;;;19.18;100.00;100110.04;1758479;80;21261;-58
2022/07/07 00:39:46;;;;;;;7.00;6.30;;;;;;;19.14;100.00;100110.77;1777227;80;21575;-56
2022/07/07 00:42:16;;;;;;;9.50;7.67;;;;;;;19.10;100.00;100114.42;1751642;80;20986;-56
2022/07/07 00:44:43;;;;;;;11.03;7.37;;;;;;;19.07;100.00;100116.75;1764311;80;21046;-56
2022/07/07 00:47:10;;;;;;;14.67;8.47;;;;;;;19.02;100.00;100110.88;1728949;80;21496;-55
2022/07/07 00:49:40;;;;;;;11.13;8.70;;;;;;;18.99;100.00;100116.64;1768217;80;20903;-55
2022/07/07 00:52:08;;;;;;;12.30;9.40;;;;;;;18.94;100.00;100112.08;1773856;80;20980;-60
2022/07/07 00:54:36;;;;;;;13.17;9.20;;;;;;;18.89;100.00;100115.16;1761990;80;20981;-63
2022/07/07 00:57:04;;;;;;;12.67;9.80;;;;;;;18.83;100.00;100124.06;1760204;80;20926;-55
2022/07/07 00:59:35;;;;;;;12.63;10.30;;;;;;;18.77;100.00;100132.41;1753104;80;21105;-55
2022/07/07 01:02:02;;;;;;;10.78;8.10;;;;;;;18.74;100.00;100134.72;1764103;80;22114;-56
2022/07/07 01:04:29;;;;;;;15.23;9.30;;;;;;;18.63;100.00;100125.27;1760756;80;21045;-63
2022/07/07 01:06:57;;;;;;;11.43;7.50;;;;;;;18.54;100.00;100129.36;1761628;80;21532;-57
2022/07/07 01:09:24;;;;;;;10.67;7.37;;;;;;;18.43;100.00;100136.30;1755898;80;21282;-56
2022/07/07 01:11:56;;;;;;;10.10;6.50;;;;;;;18.34;100.00;100134.30;1779400;80;21000;-57
2022/07/07 01:14:25;;;;;;;11.37;6.90;;;;;;;18.25;100.00;100123.30;1758891;80;21262;-55
2022/07/07 01:16:53;;;;;;;9.10;6.30;;;;;;;18.16;100.00;100126.84;1776343;80;20988;-56
2022/07/07 01:19:20;;;;;;;9.37;6.50;;;;;;;18.09;100.00;100128.02;1773671;80;21415;-55
2022/07/07 01:21:56;;;;;;;9.93;6.77;;;;;;;18.02;100.00;100130.80;1752072;80;21073;-57
2022/07/07 01:24:26;;;;;;;11.60;6.97;;;;;;;17.96;100.00;100123.31;1756528;80;21591;-61
2022/07/07 01:27:13;;;;;;;9.83;6.50;;;;;;;17.90;100.00;100126.08;1757230;80;21557;-55
2022/07/07 01:29:43;;;;;;;7.53;5.67;;;;;;;17.83;100.00;100133.33;1744921;80;20958;-61
2022/07/07 01:32:12;;;;;;;11.37;6.37;;;;;;;17.79;100.00;100129.03;1752390;80;21437;-56
2022/07/07 01:34:44;;;;;;;11.33;6.67;;;;;;;17.78;100.00;100139.30;1767082;80;21523;-57
2022/07/07 01:37:11;;;;;;;8.17;5.90;;;;;;;17.77;100.00;100139.52;1770590;80;21532;-56
2022/07/07 01:39:41;;;;;;;12.30;5.90;;;;;;;17.77;100.00;100135.56;1777009;80;21251;-64
2022/07/07 01:42:08;;;;;;;8.00;6.17;;;;;;;17.78;100.00;100139.30;1775874;80;21045;-55
2022/07/07 01:44:36;;;;;;;10.47;6.33;;;;;;;17.77;100.00;100135.56;1761503;80;20959;-55
2022/07/07 01:47:04;;;;;;;8.97;6.00;;;;;;;17.75;100.00;100135.80;1763577;80;21875;-55
2022/07/07 01:49:32;;;;;;;8.33;5.80;;;;;;;17.74;100.00;100136.30;1746765;80;21689;-56
2022/07/07 01:52:00;;;;;;;8.93;6.10;;;;;;;17.76;100.00;100141.36;1755050;80;21225;-57
2022/07/07 01:54:28;;;;;;;7.03;6.07;;;;;;;17.76;100.00;100140.04;1753883;80;21054;-58
2022/07/07 01:56:55;;;;;;;9.60;5.70;;;;;;;17.77;100.00;100139.03;1778283;80;21309;-55
2022/07/07 01:59:22;;;;;;;10.30;5.40;;;;;;;17.82;100.00;100140.95;1756640;80;21343;-55
2022/07/07 02:01:50;;;;;;;14.40;6.23;;;;;;;17.88;100.00;100142.64;1765948;80;20974;-64
2022/07/07 02:04:17;;;;;;;11.97;5.97;;;;;;;18.00;100.00;100131.56;1753093;80;22056;-60
2022/07/07 02:06:44;;;;;;;10.03;6.33;;;;;;;18.17;100.00;100127.12;1751783;80;21467;-56
2022/07/07 02:09:12;;;;;;;6.20;5.10;;;;;;;18.41;100.00;100121.73;1716725;82;21005;-56
2022/07/07 02:11:40;;;;;;;11.67;6.47;;;;;;;18.62;100.00;100125.00;1755713;80;20893;-57
2022/07/07 02:14:07;;;;;;;9.67;5.70;;;;;;;18.87;100.00;100119.89;1776222;80;21054;-57
2022/07/07 02:16:36;;;;;;;8.63;5.87;;;;;;;19.09;100.00;100120.76;1767607;80;21447;-55
2022/07/07 02:19:09;;;;;;;9.67;6.00;;;;;;;19.28;100.00;100120.45;1748588;80;20973;-57
2022/07/07 02:21:35;;;;;;;10.20;5.83;;;;;;;19.40;100.00;100119.33;1757415;80;20964;-56
2022/07/07 02:24:04;;;;;;;10.83;6.77;;;;;;;19.57;100.00;100118.47;1763259;80;21026;-59
2022/07/07 02:26:33;;;;;;;8.93;6.10;;;;;;;19.83;100.00;100124.90;1767335;80;21420;-55
2022/07/07 02:29:01;;;;;;;13.87;7.63;;;;;;;20.22;100.00;100122.13;1779772;80;22145;-56
2022/07/07 02:31:29;;;;;;;8.77;6.03;;;;;;;20.67;100.00;100117.80;1774384;80;21036;-57
2022/07/07 02:33:56;;;;;;;10.50;6.50;;;;;;;21.17;100.00;100120.52;1775159;80;21006;-63
2022/07/07 02:36:24;;;;;;;10.70;6.73;;;;;;;21.73;100.00;100120.03;1765472;80;21447;-56
2022/07/07 02:38:52;;;;;;;9.97;6.03;;;;;;;22.33;98.04;100119.41;1776098;80;21039;-56
2022/07/07 02:41:19;;;;;;;12.57;6.70;;;;;;;22.95;90.55;100117.55;1760733;80;21143;-56
2022/07/07 02:43:46;;;;;;;8.90;6.17;;;;;;;23.50;84.63;100123.02;1757110;80;21000;-63
2022/07/07 02:46:13;;;;;;;11.30;6.20;;;;;;;24.08;76.23;100119.83;1765699;80;22020;-55
2022/07/07 02:48:41;;;;;;;12.13;6.90;;;;;;;24.61;69.98;100118.67;1754690;80;21328;-56
2022/07/07 02:51:08;;;;;;;9.93;6.33;;;;;;;25.02;64.30;100111.64;1755872;80;21022;-57
2022/07/07 02:53:36;;;;;;;12.00;7.10;;;;;;;25.42;61.07;100116.56;1774573;80;21346;-56
2022/07/07 02:56:04;;;;;;;11.17;6.37;;;;;;;25.87;57.82;100114.39;1761599;80;21000;-57
2022/07/07 02:58:31;;;;;;;10.87;6.63;;;;;;;26.35;55.96;100112.11;1746661;80;21427;-57
2022/07/07 03:00:58;;;;;;;12.07;6.73;;;;;;;26.82;54.16;100112.43;1771952;80;21375;-55
2022/07/07 03:03:25;;;;;;;9.70;6.65;;;;;;;27.31;52.42;100113.66;1760989;80;21030;-56
2022/07/07 03:05:52;;;;;;;8.63;7.03;;;;;;;27.75;50.71;100113.59;1767671;80;21263;-57
2022/07/07 03:08:20;;;;;;;11.75;7.42;;;;;;;28.15;48.50;100115.13;1758063;80;21006;-63
2022/07/07 03:10:47;;;;;;;11.25;7.00;;;;;;;28.51;47.14;100111.05;1753612;80;21075;-57
2022/07/07 03:13:14;;;;;;;11.15;7.78;;;;;;;28.88;45.38;100108.27;1769407;80;21090;-56
2022/07/07 03:15:42;;;;;;;11.83;7.20;;;;;;;29.42;44.61;100103.57;1767075;80;22379;-56
2022/07/07 03:18:09;;;;;;;11.78;7.45;;;;;;;29.42;44.61;100103.57;1781891;80;21254;-58
2022/07/07 03:20:36;;;;;;;14.70;7.90;;;;;;;29.71;43.48;100103.81;1766889;79;21502;-57
2022/07/07 03:23:04;;;;;;;9.60;7.45;;;;;;;30.16;42.60;100106.22;1776982;80;21916;-57
2022/07/07 03:25:34;;;;;;;10.97;7.03;;;;;;;30.53;40.61;100105.27;1758823;80;21493;-56
2022/07/07 03:28:01;;;;;;;10.13;7.97;;;;;;;30.90;39.55;100104.32;1756644;80;21550;-61
2022/07/07 03:30:28;;;;;;;9.80;7.53;;;;;;;31.25;37.99;100107.63;1776312;79;22316;-58
2022/07/07 03:32:55;;;;;;;8.68;7.03;;;;;;;31.52;37.79;100108.30;1773622;80;21431;-56
2022/07/07 03:35:23;;;;;;;9.08;6.67;;;;;;;31.77;37.45;100105.20;1784280;80;21397;-56
2022/07/07 03:37:50;;;;;;;11.20;6.95;;;;;;;31.98;36.48;100103.32;1765645;79;21199;-56
2022/07/07 03:40:17;;;;;;;9.48;7.60;;;;;;;32.27;35.39;100111.05;1764867;80;20959;-57
2022/07/07 03:42:44;;;;;;;10.95;7.45;;;;;;;32.61;34.16;100103.97;1784586;80;21289;-57
2022/07/07 03:45:12;;;;;;;12.80;8.23;;;;;;;33.02;33.97;100113.62;1762845;80;21446;-57
2022/07/07 03:47:41;;;;;;;11.05;7.53;;;;;;;33.38;32.88;100111.47;1779336;80;21031;-57
2022/07/07 03:50:09;;;;;;;8.63;7.05;;;;;;;33.68;32.08;100114.70;1757080;80;21037;-58
2022/07/07 03:52:36;;;;;;;9.95;6.80;;;;;;;34.22;30.80;100110.81;1763265;80;21014;-57
2022/07/07 03:55:05;;;;;;;11.33;6.67;;;;;;;34.79;30.20;100109.59;1783414;80;21246;-57
2022/07/07 03:57:32;;;;;;;10.85;5.87;;;;;;;35.33;29.24;100111.07;1779198;80;21025;-57
2022/07/07 04:00:00;;;;;;;10.82;6.53;;;;;;;36.01;27.78;100111.17;1767952;79;21434;-55
2022/07/07 04:02:28;;;;;;;10.65;6.40;;;;;;;36.31;26.82;100114.64;1756053;80;21063;-57
2022/07/07 04:04:56;;;;;;;10.75;5.78;;;;;;;36.41;26.18;100119.48;1770925;79;21050;-57
2022/07/07 04:07:24;;;;;;;9.80;6.28;;;;;;;36.58;26.07;100121.53;1785095;79;22450;-56
2022/07/07 04:09:51;;;;;;;9.58;5.97;;;;;;;36.80;26.67;100130.83;1767919;79;21486;-56
2022/07/07 04:12:18;;;;;;;8.75;5.92;;;;;;;37.08;25.79;100131.86;1775805;79;21042;-63
2022/07/07 04:14:45;;;;;;;9.03;6.55;;;;;;;37.27;25.51;100130.39;1786839;79;21006;-64
2022/07/07 04:17:13;;;;;;;8.93;6.58;;;;;;;37.20;26.01;100129.73;1793947;79;21050;-57
2022/07/07 04:19:40;;;;;;;10.20;6.15;;;;;;;37.14;26.26;100131.77;1776373;79;21573;-55
2022/07/07 04:22:07;;;;;;;7.37;6.00;;;;;;;37.28;26.42;100129.27;1793284;79;21019;-56
2022/07/07 04:24:34;;;;;;;9.48;6.53;;;;;;;37.74;26.03;100134.56;1774108;79;20979;-57
2022/07/07 04:27:02;;;;;;;9.58;5.80;;;;;;;37.96;25.54;100122.81;1775248;79;21245;-64
2022/07/07 04:29:29;;;;;;;8.00;5.40;;;;;;;38.06;25.17;100128.73;1776444;79;20942;-56
2022/07/07 04:31:56;;;;;;;9.65;5.85;;;;;;;38.33;25.10;100129.39;1786359;79;21925;-56
2022/07/07 04:34:24;;;;;;;9.28;6.03;;;;;;;38.71;24.77;100130.92;1782179;79;21099;-57
2022/07/07 04:36:51;;;;;;;9.45;5.87;;;;;;;39.05;24.06;100126.73;1770253;79;21458;-62
2022/07/07 04:39:18;;;;;;;9.68;5.70;;;;;;;39.29;24.19;100120.69;1788415;79;21137;-56
2022/07/07 04:41:46;;;;;;;8.85;5.95;;;;;;;39.54;24.11;100123.53;1771605;79;21061;-56
2022/07/07 04:44:13;;;;;;;10.15;5.50;;;;;;;39.83;23.62;100128.55;1755498;81;21113;-63
2022/07/07 04:46:40;;;;;;;9.53;6.17;;;;;;;40.03;23.36;100124.90;1795186;79;20983;-63
2022/07/07 04:49:07;;;;;;;13.98;6.30;;;;;;;40.52;22.85;100119.34;1787697;79;21037;-57
2022/07/07 04:51:37;;;;;;;8.15;6.08;;;;;;;40.81;22.43;100113.31;1735398;81;21485;-56
2022/07/07 04:54:04;;;;;;;8.78;6.70;;;;;;;40.87;21.60;100117.02;1775276;79;21037;-56
2022/07/07 04:56:31;;;;;;;8.03;5.87;;;;;;;40.83;22.16;100110.17;1775831;79;21226;-57
2022/07/07 04:58:58;;;;;;;8.60;6.03;;;;;;;41.02;21.61;100113.11;1784105;79;22117;-56
2022/07/07 05:01:25;;;;;;;11.15;7.90;;;;;;;41.19;21.24;100116.41;1776129;79;21055;-55
2022/07/07 05:03:52;;;;;;;8.15;6.08;;;;;;;41.11;20.42;100113.50;1783133;79;21042;-55
2022/07/07 05:06:19;;;;;;;8.43;6.20;;;;;;;41.13;20.76;100111.72;1754387;79;21044;-57
2022/07/07 05:08:48;;;;;;;9.05;6.47;;;;;;;41.30;20.38;100110.31;1756453;81;21393;-57
2022/07/07 05:11:16;;;;;;;13.30;6.67;;;;;;;41.36;20.66;100109.89;1742508;80;21880;-56
2022/07/07 05:13:43;;;;;;;9.55;7.10;;;;;;;41.39;20.29;100110.48;1757129;81;21565;-56
2022/07/07 05:16:11;;;;;;;13.35;7.37;;;;;;;41.24;20.99;100113.84;1757864;80;21537;-56
2022/07/07 05:18:38;;;;;;;13.93;8.00;;;;;;;41.51;20.77;100108.70;1748531;80;21004;-57
2022/07/07 05:21:05;;;;;;;10.13;7.72;;;;;;;41.85;20.08;100108.17;1756959;81;21258;-56
2022/07/07 05:23:33;;;;;;;11.48;7.42;;;;;;;42.26;20.27;100113.22;1757354;81;21057;-57
2022/07/07 05:26:01;;;;;;;11.55;7.72;;;;;;;42.82;20.39;100104.18;1757326;81;21427;-56
2022/07/07 05:28:30;;;;;;;10.08;7.78;;;;;;;43.16;19.71;100113.25;1746133;80;21897;-58
2022/07/07 05:30:57;;;;;;;11.43;7.78;;;;;;;43.24;19.46;100111.97;1745022;80;21009;-57
2022/07/07 05:33:25;;;;;;;13.88;8.60;;;;;;;43.16;19.40;100109.73;1757335;81;21117;-56
2022/07/07 05:35:52;;;;;;;12.55;7.72;;;;;;;43.18;19.39;100112.23;1745144;80;20979;-56
2022/07/07 05:38:19;;;;;;;12.43;8.88;;;;;;;43.45;19.02;100110.15;1688100;83;21579;-60
2022/07/07 05:40:47;;;;;;;12.33;8.70;;;;;;;43.78;18.92;100107.20;1695610;83;21829;-58
2022/07/07 05:43:15;;;;;;;12.50;9.23;;;;;;;44.05;18.20;100100.36;1720230;81;21456;-57
2022/07/07 05:45:42;;;;;;;13.05;9.03;;;;;;;44.28;18.57;100100.23;1717693;81;21748;-55
2022/07/07 05:48:09;;;;;;;14.68;9.13;;;;;;;44.23;18.23;100097.95;1698309;83;21075;-58
2022/07/07 05:50:37;;;;;;;18.40;12.10;;;;;;;44.17;18.24;100097.03;1719533;81;21002;-63
2022/07/07 05:53:04;;;;;;;12.80;9.70;;;;;;;43.99;18.39;100101.27;1705987;83;21597;-57
2022/07/07 05:55:32;;;;;;;14.05;9.90;;;;;;;43.67;18.67;100099.11;1709572;83;21105;-57
2022/07/07 05:57:59;;;;;;;15.03;11.93;;;;;;;43.47;18.70;100094.87;1711189;83;21207;-56
2022/07/07 06:00:28;;;;;;;14.25;10.88;;;;;;;43.68;18.93;100098.51;1706725;83;20933;-56
2022/07/07 06:02:55;;;;;;;17.35;10.93;;;;;;;43.58;18.40;100103.56;1757890;81;21046;-56
2022/07/07 06:05:23;;;;;;;16.55;10.95;;;;;;;43.30;18.17;100099.94;1742423;81;21452;-56
2022/07/07 06:07:51;;;;;;;14.20;12.58;;;;;;;42.99;18.16;100093.61;1776061;80;20956;-56
2022/07/07 06:10:20;;;;;;;17.77;11.95;;;;;;;42.80;18.63;100094.20;1765750;80;22326;-59
2022/07/07 06:12:50;;;;;;;23.62;14.23;;;;;;;42.75;19.04;100089.34;1784162;80;21369;-61
2022/07/07 06:15:20;;;;;;;16.10;13.48;;;;;;;43.13;18.91;100092.11;1766662;80;21450;-58
2022/07/07 06:17:54;;;;;;;17.32;13.20;;;;;;;43.11;18.41;100082.13;1768830;80;22180;-56
2022/07/07 06:20:25;;;;;;;14.43;10.93;;;;;;;42.88;18.92;100081.97;1707200;83;20999;-62
2022/07/07 06:22:55;;;;;;;17.27;12.60;;;;;;;42.81;18.75;100082.04;1751307;80;22090;-55
2022/07/07 06:25:26;;;;;;;16.50;10.90;;;;;;;42.70;18.68;100081.57;1771301;80;21022;-56
2022/07/07 06:28:01;;;;;;;13.58;11.20;;;;;;;42.49;18.48;100083.09;1774672;80;20999;-62
2022/07/07 06:30:31;;;;;;;15.98;10.70;;;;;;;42.40;18.36;100081.43;1709212;81;21271;-58
2022/07/07 06:32:58;;;;;;;14.40;11.85;;;;;;;42.12;18.20;100078.27;1715618;82;21102;-60
2022/07/07 06:35:26;;;;;;;17.77;12.18;;;;;;;41.99;18.63;100080.72;1756083;80;21203;-58
2022/07/07 06:37:58;;;;;;;10.60;8.48;;;;;;;42.18;18.72;100076.67;1770365;80;20951;-56
2022/07/07 06:40:29;;;;;;;10.03;6.95;;;;;;;42.37;18.23;100077.52;1753455;80;21019;-65
2022/07/07 06:43:00;;;;;;;12.73;8.33;;;;;;;42.26;18.12;100081.72;1767429;80;21005;-56
2022/07/07 06:45:29;;;;;;;9.65;6.67;;;;;;;42.24;18.38;100079.16;1754820;80;20902;-59
2022/07/07 06:47:57;;;;;;;9.05;5.47;;;;;;;42.13;17.85;100077.88;1776523;80;21239;-55
2022/07/07 06:50:28;;;;;;;8.93;4.70;;;;;;;41.76;17.52;100075.16;1761099;79;21565;-59
2022/07/07 06:53:01;;;;;;;8.30;5.20;;;;;;;41.26;17.31;100078.69;1763651;80;21114;-55
2022/07/07 06:55:29;;;;;;;8.25;5.17;;;;;;;40.80;18.02;100073.50;1751727;81;20941;-62
2022/07/07 06:57:57;;;;;;;11.45;5.85;;;;;;;41.09;18.08;100074.81;1736110;80;20967;-58
2022/07/07 07:00:26;;;;;;;7.10;4.40;;;;;;;42.28;17.24;100060.75;1777570;80;21645;-56
2022/07/07 07:02:58;;;;;;;8.75;4.95;;;;;;;42.28;17.24;100060.75;1756544;80;20936;-57
2022/07/07 07:05:30;;;;;;;4.78;2.90;;;;;;;42.30;17.40;100072.70;1738770;81;21342;-62
2022/07/07 07:07:59;;;;;;;3.80;2.25;;;;;;;41.87;15.50;100085.30;1752128;80;21391;-59
2022/07/07 07:10:30;;;;;;;5.97;2.00;;;;;;;40.80;15.71;100077.59;1774645;80;21532;-57
2022/07/07 07:13:00;;;;;;;4.25;1.80;;;;;;;40.04;16.01;100069.71;1763249;79;21154;-62
2022/07/07 07:15:33;;;;;;;3.33;1.80;;;;;;;39.75;16.57;100079.80;1707424;83;21748;-57
2022/07/07 07:18:00;;;;;;;3.87;2.02;;;;;;;39.38;16.90;100072.62;1736522;80;20948;-56
2022/07/07 07:20:29;;;;;;;9.28;2.87;;;;;;;39.04;17.00;100079.61;1760194;80;21035;-57
2022/07/07 07:22:59;;;;;;;2.90;1.60;;;;;;;38.59;17.06;100077.52;1758226;79;22200;-58
2022/07/07 07:25:26;;;;;;;3.42;2.02;;;;;;;38.35;17.92;100073.44;1737903;80;22192;-65
2022/07/07 07:27:54;;;;;;;3.12;1.87;;;;;;;38.32;18.07;100081.55;1749957;80;20985;-57
2022/07/07 07:30:23;;;;;;;3.75;1.87;;;;;;;38.42;17.77;100072.73;1763405;80;21018;-59
2022/07/07 07:32:52;;;;;;;3.77;2.02;;;;;;;38.55;17.70;100066.40;1777142;80;21004;-58
2022/07/07 07:35:21;;;;;;;;;;;;;;;38.67;17.50;100085.16;1758701;80;21001;-64
2022/07/07 07:37:51;;;;;;;5.12;1.80;;;;;;;38.33;17.52;100083.88;1765505;80;20147;-59
2022/07/07 07:40:23;;;;;;;1.98;1.67;;;;;;;37.74;18.49;100072.00;1765340;80;21094;-65
2022/07/07 07:42:53;;;;;;;2.90;2.00;;;;;;;37.52;17.85;100071.53;1767705;80;21666;-56
2022/07/07 07:45:24;;;;;;;3.42;2.00;;;;;;;37.41;18.27;100070.81;1769665;80;21067;-56
2022/07/07 07:47:51;;;;;;;4.00;2.08;;;;;;;37.52;18.88;100068.81;1747028;80;21038;-57
2022/07/07 07:50:22;;;;;;;5.08;2.50;;;;;;;37.75;18.53;100068.11;1738834;81;21231;-65
2022/07/07 07:52:51;;;;;;;4.85;2.75;;;;;;;38.00;18.41;100075.22;1757355;80;21397;-58
2022/07/07 07:55:24;;;;;;;;;;;;;;;37.90;18.09;100078.02;1778830;80;21489;-61
2022/07/07 07:57:56;;;;;;;6.25;3.50;;;;;;;37.87;18.40;100076.02;1752643;80;20428;-59
2022/07/07 08:00:34;;;;;;;4.95;3.12;;;;;;;38.01;18.38;100080.08;1766476;80;21520;-56
2022/07/07 08:03:07;;;;;;;5.65;3.75;;;;;;;38.23;18.06;100070.97;1754430;80;21182;-57
2022/07/07 08:05:39;;;;;;;4.30;3.55;;;;;;;38.26;18.17;100068.84;1768340;80;21439;-58
2022/07/07 08:08:08;;;;;;;4.97;3.27;;;;;;;38.25;18.61;100071.37;1720251;81;20984;-61
2022/07/07 08:10:38;;;;;;;5.08;3.08;;;;;;;38.32;17.90;100068.70;1770952;80;21070;-58
2022/07/07 08:13:08;;;;;;;5.17;3.25;;;;;;;38.44;17.99;100073.12;1758994;80;21039;-61
2022/07/07 08:15:37;;;;;;;5.28;2.90;;;;;;;38.29;17.83;100072.77;1752301;80;21044;-60
2022/07/07 08:18:06;;;;;;;6.20;3.30;;;;;;;37.96;18.34;100079.27;1755090;80;21086;-58
2022/07/07 08:20:35;;;;;;;4.28;2.72;;;;;;;37.91;17.73;100076.86;1772932;79;21514;-60
2022/07/07 08:23:03;;;;;;;5.42;2.47;;;;;;;37.94;17.80;100069.31;1773757;80;20947;-58
2022/07/07 08:25:33;;;;;;;4.12;2.12;;;;;;;38.24;17.65;100060.86;1777517;80;21038;-58
2022/07/07 08:28:05;;;;;;;3.72;2.40;;;;;;;38.27;17.68;100069.06;1759243;80;21226;-64
2022/07/07 08:30:39;;;;;;;5.00;2.45;;;;;;;38.16;17.47;100066.82;1747373;80;21049;-61
2022/07/07 08:33:08;;;;;;;4.45;2.55;;;;;;;38.18;17.58;100063.91;1755535;80;21779;-58
2022/07/07 08:35:36;;;;;;;4.55;3.45;;;;;;;38.47;17.40;100061.48;1737460;81;20988;-60
2022/07/07 08:38:03;;;;;;;4.30;2.55;;;;;;;38.63;17.50;100066.66;1754705;80;20948;-66
2022/07/07 08:40:33;;;;;;;3.17;1.90;;;;;;;38.43;17.05;100068.25;1778898;80;22128;-58
2022/07/07 08:43:00;;;;;;;4.70;2.25;;;;;;;38.15;17.42;100060.59;1752592;80;21787;-57
2022/07/07 08:45:27;;;;;;;4.53;2.10;;;;;;;38.26;17.36;100055.23;1754694;80;21514;-57
2022/07/07 08:47:55;;;;;;;6.10;2.52;;;;;;;38.73;16.63;100053.70;1759235;80;21075;-59
2022/07/07 08:50:22;;;;;;;4.70;2.10;;;;;;;38.99;16.13;100048.64;1746265;80;21053;-59
2022/07/07 08:52:52;;;;;;;3.95;1.98;;;;;;;38.95;16.16;100046.48;1772577;80;21482;-57
2022/07/07 08:55:22;;;;;;;6.83;2.22;;;;;;;38.72;16.75;100048.05;1766842;80;21023;-58
2022/07/07 08:57:51;;;;;;;4.47;2.20;;;;;;;38.57;16.58;100045.80;1751730;79;21130;-57
2022/07/07 09:00:19;;;;;;;4.95;2.30;;;;;;;38.36;16.20;100040.96;1755328;80;21475;-63
2022/07/07 09:02:47;;;;;;;3.17;1.90;;;;;;;38.28;16.99;100036.59;1752369;80;21933;-56
2022/07/07 09:05:14;;;;;;;3.50;2.10;;;;;;;38.47;16.49;100036.19;1765464;80;22420;-57
2022/07/07 09:07:50;;;;;;;3.22;1.57;;;;;;;38.35;16.43;100054.37;1763079;80;20964;-60
2022/07/07 09:10:34;;;;;;;2.75;1.80;;;;;;;37.94;16.33;100039.97;1742083;81;21077;-57
2022/07/07 09:13:01;;;;;;;4.37;1.55;;;;;;;37.72;17.18;100038.92;1756530;81;21075;-56
2022/07/07 09:15:39;;;;;;;5.17;2.30;;;;;;;37.85;16.98;100028.59;1733994;81;21012;-63
2022/07/07 09:18:08;;;;;;;4.97;2.37;;;;;;;37.94;16.64;100044.83;1754507;81;21857;-57
2022/07/07 09:20:36;;;;;;;3.83;2.30;;;;;;;37.94;16.17;100027.14;1754931;81;21050;-58
2022/07/07 09:23:03;;;;;;;3.67;2.20;;;;;;;37.91;16.34;100028.47;1753159;81;21046;-56
2022/07/07 09:25:32;;;;;;;4.40;1.92;;;;;;;38.00;16.80;100032.23;1759253;81;20979;-63
2022/07/07 09:28:04;;;;;;;3.95;2.37;;;;;;;38.00;15.96;100026.79;1759286;81;21073;-57
2022/07/07 09:30:40;;;;;;;3.67;2.83;;;;;;;38.11;16.04;100037.20;1755628;81;21346;-56
2022/07/07 09:33:11;;;;;;;6.15;3.27;;;;;;;38.06;15.38;100040.27;1761442;81;21053;-63
2022/07/07 09:38:30;;;;;;;5.10;3.05;;;;;;;37.78;15.40;100019.77;1753814;81;21044;-58
2022/07/07 09:41:08;;;;;;;5.95;3.42;;;;;;;37.83;15.56;100026.22;1757399;81;21515;-62
2022/07/07 09:43:47;;;;;;;5.47;3.80;;;;;;;37.70;15.33;100022.20;1761471;80;21196;-56
2022/07/07 09:46:20;;;;;;;5.75;5.00;;;;;;;37.65;16.28;100017.86;1760307;81;21015;-56
2022/07/07 09:48:52;;;;;;;6.80;5.20;;;;;;;37.75;16.19;100020.50;1754954;81;21051;-56
2022/07/07 09:51:27;;;;;;;7.20;4.28;;;;;;;37.79;16.46;100019.97;1756344;81;21297;-56
2022/07/07 09:54:12;;;;;;;6.30;4.00;;;;;;;37.73;16.65;100019.53;1761568;80;20853;-57
2022/07/07 09:56:42;;;;;;;5.72;4.40;;;;;;;37.61;16.06;100013.55;1748522;81;21214;-63
2022/07/07 09:59:16;;;;;;;5.90;3.75;;;;;;;37.42;16.67;100012.55;1759167;81;21499;-56
2022/07/07 10:01:45;;;;;;;7.80;4.17;;;;;;;37.12;17.18;100011.76;1752268;81;20989;-56
2022/07/07 10:04:17;;;;;;;7.55;3.83;;;;;;;37.15;16.90;100004.23;1754562;81;20968;-62
2022/07/07 10:06:44;;;;;;;6.05;3.92;;;;;;;37.32;17.10;100012.42;1756255;80;21995;-57
2022/07/07 10:09:20;;;;;;;4.55;3.80;;;;;;;37.18;16.56;100005.64;1759530;81;21484;-57
2022/07/07 10:11:50;;;;;;;4.67;3.10;;;;;;;37.17;16.74;100015.53;1747805;81;20996;-56
2022/07/07 10:14:30;;;;;;;8.70;2.77;;;;;;;37.29;17.11;100008.50;1736893;81;21111;-57
2022/07/07 10:16:59;;;;;;;3.80;2.75;;;;;;;37.61;17.19;100009.47;1744968;81;21003;-57
2022/07/07 10:19:26;;;;;;;4.50;2.33;;;;;;;37.93;16.27;100004.40;1739389;81;21953;-56
2022/07/07 10:21:58;;;;;;;3.95;2.55;;;;;;;37.96;16.51;100008.52;1755061;81;21098;-57
2022/07/07 10:24:31;;;;;;;2.80;2.17;;;;;;;37.87;16.72;100007.21;1748967;81;21044;-56
2022/07/07 10:27:01;;;;;;;4.70;2.55;;;;;;;37.98;16.42;100000.74;1753498;81;21008;-57
2022/07/07 10:29:42;;;;;;;4.90;2.35;;;;;;;38.18;16.63;99997.80;1750662;81;20997;-58
2022/07/07 10:32:19;;;;;;;5.28;2.40;;;;;;;38.60;16.09;99993.27;1743741;81;21007;-58
2022/07/07 10:34:55;;;;;;;4.25;2.30;;;;;;;38.96;15.79;99990.80;1753278;81;21639;-60
2022/07/07 10:37:23;;;;;;;5.60;2.77;;;;;;;38.96;15.60;99990.80;1752569;80;21076;-58
2022/07/07 10:39:53;;;;;;;3.17;2.30;;;;;;;38.83;15.57;100000.45;1749014;81;21079;-61
2022/07/07 10:45:49;;;;;;;7.22;3.10;;;;;;;38.08;15.25;99993.84;1754810;81;20298;-58
2022/07/07 10:48:44;;;;;;;4.17;2.37;;;;;;;37.85;15.88;99998.66;1744067;81;21137;-60
2022/07/07 10:51:22;;;;;;;5.85;2.55;;;;;;;37.87;15.74;99994.97;1760167;80;21913;-57
2022/07/07 10:54:08;;;;;;;4.65;3.02;;;;;;;37.74;15.82;99997.19;1752412;81;21039;-64
2022/07/07 10:56:59;;;;;;;3.35;2.10;;;;;;;37.76;15.50;99988.06;1753128;81;21087;-58
2022/07/07 10:59:27;;;;;;;3.95;2.50;;;;;;;38.09;15.62;99988.59;1752655;81;21087;-61
2022/07/07 11:02:06;;;;;;;5.15;2.50;;;;;;;38.33;15.65;99987.22;1715003;81;21451;-57
2022/07/07 11:04:47;;;;;;;5.25;2.83;;;;;;;38.39;15.96;99991.20;1747632;81;21343;-56
2022/07/07 11:07:16;;;;;;;4.53;2.67;;;;;;;38.24;16.12;99988.14;1765742;80;21090;-58
2022/07/07 11:10:00;;;;;;;;;;;;;;;38.16;16.32;99987.88;1775831;80;21055;-65
2022/07/07 11:12:50;;;;;;;3.72;2.90;;;;;;;38.01;16.04;99987.56;1767267;80;20171;-57
2022/07/07 11:15:33;;;;;;;4.12;3.20;;;;;;;37.85;15.83;99980.39;1759018;80;21285;-65
2022/07/07 11:18:19;;;;;;;4.62;3.17;;;;;;;38.01;15.94;99978.81;1773516;79;20915;-57
2022/07/07 11:20:59;;;;;;;4.53;2.72;;;;;;;38.18;15.85;99983.60;1765783;80;21419;-65
2022/07/07 11:23:28;;;;;;;5.15;2.70;;;;;;;38.17;16.50;99983.41;1770604;80;21022;-57
2022/07/07 11:25:56;;;;;;;5.55;2.83;;;;;;;38.18;16.09;99986.91;1739874;80;20947;-57
2022/07/07 11:28:25;;;;;;;5.45;2.98;;;;;;;38.04;15.56;99986.81;1753331;80;21377;-61
2022/07/07 11:31:01;;;;;;;4.35;3.02;;;;;;;37.95;15.74;99985.16;1714665;82;21097;-58
2022/07/07 11:33:28;;;;;;;6.12;3.15;;;;;;;37.95;15.59;99989.83;1758608;80;21356;-58
2022/07/07 11:35:55;;;;;;;6.30;3.47;;;;;;;37.62;16.11;99985.19;1766049;80;21518;-57
2022/07/07 11:38:28;;;;;;;6.75;3.12;;;;;;;37.50;16.79;99980.20;1749717;80;21095;-58